sensor_id;sensor_type;location;lat;lon;timestamp;P1;durP1;ratioP1;P2;durP2;ratioP2
17812;SDS011;9030;50.792;8.320;2023-02-01T00:00:10;6.93;;;2.45;;
17812;SDS011;9030;50.792;8.320;2023-02-01T00:02:39;6.05;;;2.83;;
17812;SDS011;9030;50.792;8.320;2023-02-01T00:05:07;6.47;;;2.40;;
17812;SDS011;9030;50.792;8.320;2023-02-01T00:07:34;6.10;;;2.40;;
17812;SDS011;9030;50.792;8.320;2023-02-01T00:10:01;8.38;;;2.50;;
17812;SDS011;9030;50.792;8.320;2023-02-01T00:12:28;7.25;;;2.65;;
17812;SDS011;9030;50.792;8.320;2023-02-01T00:14:55;6.22;;;2.35;;
17812;SDS011;9030;50.792;8.320;2023-02-01T00:17:22;4.55;;;2.28;;
17812;SDS011;9030;50.792;8.320;2023-02-01T00:19:50;6.53;;;2.10;;
17812;SDS011;9030;50.792;8.320;2023-02-01T00:22:17;7.88;;;2.88;;
17812;SDS011;9030;50.792;8.320;2023-02-01T00:24:44;6.68;;;2.53;;
17812;SDS011;9030;50.792;8.320;2023-02-01T00:27:11;5.28;;;2.08;;
17812;SDS011;9030;50.792;8.320;2023-02-01T00:29:42;6.45;;;2.65;;
17812;SDS011;9030;50.792;8.320;2023-02-01T00:32:09;4.95;;;2.45;;
17812;SDS011;9030;50.792;8.320;2023-02-01T00:34:36;9.30;;;2.67;;
17812;SDS011;9030;50.792;8.320;2023-02-01T00:37:04;5.28;;;2.00;;
17812;SDS011;9030;50.792;8.320;2023-02-01T00:39:31;4.47;;;2.50;;
17812;SDS011;9030;50.792;8.320;2023-02-01T00:41:58;6.63;;;2.40;;
17812;SDS011;9030;50.792;8.320;2023-02-01T00:44:26;9.02;;;2.83;;
17812;SDS011;9030;50.792;8.320;2023-02-01T00:46:53;6.25;;;2.13;;
17812;SDS011;9030;50.792;8.320;2023-02-01T00:49:19;8.48;;;2.80;;
17812;SDS011;9030;50.792;8.320;2023-02-01T00:51:46;4.85;;;1.63;;
17812;SDS011;9030;50.792;8.320;2023-02-01T00:54:15;7.88;;;2.95;;
17812;SDS011;9030;50.792;8.320;2023-02-01T00:56:41;6.95;;;2.88;;
17812;SDS011;9030;50.792;8.320;2023-02-01T00:59:10;5.15;;;2.05;;
17812;SDS011;9030;50.792;8.320;2023-02-01T01:01:37;6.43;;;2.42;;
17812;SDS011;9030;50.792;8.320;2023-02-01T01:04:04;5.40;;;1.98;;
17812;SDS011;9030;50.792;8.320;2023-02-01T01:06:32;6.45;;;2.33;;
17812;SDS011;9030;50.792;8.320;2023-02-01T01:09:00;4.88;;;2.58;;
17812;SDS011;9030;50.792;8.320;2023-02-01T01:11:32;5.40;;;2.00;;
17812;SDS011;9030;50.792;8.320;2023-02-01T01:14:00;5.93;;;2.20;;
17812;SDS011;9030;50.792;8.320;2023-02-01T01:16:27;7.07;;;2.40;;
17812;SDS011;9030;50.792;8.320;2023-02-01T01:18:56;6.00;;;2.35;;
17812;SDS011;9030;50.792;8.320;2023-02-01T01:21:23;6.03;;;2.00;;
17812;SDS011;9030;50.792;8.320;2023-02-01T01:23:51;6.95;;;2.78;;
17812;SDS011;9030;50.792;8.320;2023-02-01T01:26:18;6.10;;;2.05;;
17812;SDS011;9030;50.792;8.320;2023-02-01T01:28:47;7.10;;;2.38;;
17812;SDS011;9030;50.792;8.320;2023-02-01T01:31:15;4.57;;;2.22;;
17812;SDS011;9030;50.792;8.320;2023-02-01T01:33:43;7.07;;;2.78;;
17812;SDS011;9030;50.792;8.320;2023-02-01T01:36:10;4.95;;;2.00;;
17812;SDS011;9030;50.792;8.320;2023-02-01T01:38:37;4.25;;;1.83;;
17812;SDS011;9030;50.792;8.320;2023-02-01T01:41:05;6.65;;;2.10;;
17812;SDS011;9030;50.792;8.320;2023-02-01T01:43:45;5.05;;;1.90;;
17812;SDS011;9030;50.792;8.320;2023-02-01T01:46:16;7.60;;;2.20;;
17812;SDS011;9030;50.792;8.320;2023-02-01T01:48:44;5.90;;;2.33;;
17812;SDS011;9030;50.792;8.320;2023-02-01T01:51:12;6.25;;;1.63;;
17812;SDS011;9030;50.792;8.320;2023-02-01T01:53:43;6.60;;;2.00;;
17812;SDS011;9030;50.792;8.320;2023-02-01T01:56:14;6.38;;;2.15;;
17812;SDS011;9030;50.792;8.320;2023-02-01T01:58:41;7.20;;;2.40;;
17812;SDS011;9030;50.792;8.320;2023-02-01T02:01:10;5.90;;;1.90;;
17812;SDS011;9030;50.792;8.320;2023-02-01T02:03:37;8.23;;;2.25;;
17812;SDS011;9030;50.792;8.320;2023-02-01T02:06:15;6.35;;;1.77;;
17812;SDS011;9030;50.792;8.320;2023-02-01T02:08:49;5.60;;;2.03;;
17812;SDS011;9030;50.792;8.320;2023-02-01T02:11:16;9.13;;;2.58;;
17812;SDS011;9030;50.792;8.320;2023-02-01T02:13:45;7.07;;;1.90;;
17812;SDS011;9030;50.792;8.320;2023-02-01T02:16:19;5.28;;;1.80;;
17812;SDS011;9030;50.792;8.320;2023-02-01T02:18:57;6.43;;;2.17;;
17812;SDS011;9030;50.792;8.320;2023-02-01T02:21:43;5.28;;;2.35;;
17812;SDS011;9030;50.792;8.320;2023-02-01T02:24:35;5.00;;;1.90;;
17812;SDS011;9030;50.792;8.320;2023-02-01T02:27:21;5.72;;;2.13;;
17812;SDS011;9030;50.792;8.320;2023-02-01T02:33:18;6.60;;;2.17;;
17812;SDS011;9030;50.792;8.320;2023-02-01T02:36:01;5.53;;;2.03;;
17812;SDS011;9030;50.792;8.320;2023-02-01T02:38:35;7.25;;;1.80;;
17812;SDS011;9030;50.792;8.320;2023-02-01T02:41:08;8.35;;;2.50;;
17812;SDS011;9030;50.792;8.320;2023-02-01T02:44:02;4.75;;;1.92;;
17812;SDS011;9030;50.792;8.320;2023-02-01T02:46:53;5.35;;;1.73;;
17812;SDS011;9030;50.792;8.320;2023-02-01T02:49:49;6.32;;;1.83;;
17812;SDS011;9030;50.792;8.320;2023-02-01T02:52:35;4.10;;;1.80;;
17812;SDS011;9030;50.792;8.320;2023-02-01T02:55:21;5.78;;;2.00;;
17812;SDS011;9030;50.792;8.320;2023-02-01T02:57:51;6.68;;;2.38;;
17812;SDS011;9030;50.792;8.320;2023-02-01T03:00:36;4.65;;;1.85;;
17812;SDS011;9030;50.792;8.320;2023-02-01T03:03:22;5.95;;;2.42;;
17812;SDS011;9030;50.792;8.320;2023-02-01T03:06:10;5.57;;;2.45;;
17812;SDS011;9030;50.792;8.320;2023-02-01T03:08:40;5.35;;;2.03;;
17812;SDS011;9030;50.792;8.320;2023-02-01T03:11:10;4.70;;;2.00;;
17812;SDS011;9030;50.792;8.320;2023-02-01T03:13:40;4.07;;;1.60;;
17812;SDS011;9030;50.792;8.320;2023-02-01T03:16:12;6.00;;;1.65;;
17812;SDS011;9030;50.792;8.320;2023-02-01T03:18:48;3.83;;;1.60;;
17812;SDS011;9030;50.792;8.320;2023-02-01T03:21:21;6.90;;;2.17;;
17812;SDS011;9030;50.792;8.320;2023-02-01T03:23:50;5.43;;;1.63;;
17812;SDS011;9030;50.792;8.320;2023-02-01T03:26:19;7.18;;;2.50;;
17812;SDS011;9030;50.792;8.320;2023-02-01T03:28:49;7.85;;;2.40;;
17812;SDS011;9030;50.792;8.320;2023-02-01T03:31:20;6.75;;;1.92;;
17812;SDS011;9030;50.792;8.320;2023-02-01T03:33:48;4.07;;;1.65;;
17812;SDS011;9030;50.792;8.320;2023-02-01T03:36:15;7.70;;;2.10;;
17812;SDS011;9030;50.792;8.320;2023-02-01T03:38:50;4.72;;;2.17;;
17812;SDS011;9030;50.792;8.320;2023-02-01T03:41:23;7.55;;;1.88;;
17812;SDS011;9030;50.792;8.320;2023-02-01T03:43:54;6.95;;;1.90;;
17812;SDS011;9030;50.792;8.320;2023-02-01T03:46:25;7.80;;;2.53;;
17812;SDS011;9030;50.792;8.320;2023-02-01T03:48:58;5.57;;;2.03;;
17812;SDS011;9030;50.792;8.320;2023-02-01T03:51:28;3.38;;;1.80;;
17812;SDS011;9030;50.792;8.320;2023-02-01T03:53:57;4.93;;;1.67;;
17812;SDS011;9030;50.792;8.320;2023-02-01T03:56:27;6.80;;;2.20;;
17812;SDS011;9030;50.792;8.320;2023-02-01T03:58:55;5.70;;;2.03;;
17812;SDS011;9030;50.792;8.320;2023-02-01T04:01:26;5.65;;;1.77;;
17812;SDS011;9030;50.792;8.320;2023-02-01T04:03:54;6.53;;;2.10;;
17812;SDS011;9030;50.792;8.320;2023-02-01T04:06:21;6.13;;;2.10;;
17812;SDS011;9030;50.792;8.320;2023-02-01T04:08:48;6.35;;;1.90;;
17812;SDS011;9030;50.792;8.320;2023-02-01T04:11:16;6.30;;;2.30;;
17812;SDS011;9030;50.792;8.320;2023-02-01T04:13:43;4.60;;;1.73;;
17812;SDS011;9030;50.792;8.320;2023-02-01T04:16:10;6.00;;;1.67;;
17812;SDS011;9030;50.792;8.320;2023-02-01T04:18:37;4.03;;;1.25;;
17812;SDS011;9030;50.792;8.320;2023-02-01T04:21:04;6.30;;;2.28;;
17812;SDS011;9030;50.792;8.320;2023-02-01T04:23:31;6.78;;;2.15;;
17812;SDS011;9030;50.792;8.320;2023-02-01T04:26:00;6.50;;;2.38;;
17812;SDS011;9030;50.792;8.320;2023-02-01T04:28:30;5.38;;;1.90;;
17812;SDS011;9030;50.792;8.320;2023-02-01T04:30:57;5.90;;;2.30;;
17812;SDS011;9030;50.792;8.320;2023-02-01T04:33:23;5.80;;;2.08;;
17812;SDS011;9030;50.792;8.320;2023-02-01T04:35:50;6.15;;;2.47;;
17812;SDS011;9030;50.792;8.320;2023-02-01T04:38:17;5.82;;;2.22;;
17812;SDS011;9030;50.792;8.320;2023-02-01T04:40:46;7.93;;;2.42;;
17812;SDS011;9030;50.792;8.320;2023-02-01T04:43:13;8.35;;;2.47;;
17812;SDS011;9030;50.792;8.320;2023-02-01T04:45:42;6.35;;;2.88;;
17812;SDS011;9030;50.792;8.320;2023-02-01T04:48:13;8.90;;;2.30;;
17812;SDS011;9030;50.792;8.320;2023-02-01T04:50:40;7.55;;;2.25;;
17812;SDS011;9030;50.792;8.320;2023-02-01T04:53:07;5.65;;;1.88;;
17812;SDS011;9030;50.792;8.320;2023-02-01T04:55:33;8.52;;;2.63;;
17812;SDS011;9030;50.792;8.320;2023-02-01T04:58:00;8.07;;;2.30;;
17812;SDS011;9030;50.792;8.320;2023-02-01T05:00:27;8.02;;;2.50;;
17812;SDS011;9030;50.792;8.320;2023-02-01T05:02:55;8.20;;;2.80;;
17812;SDS011;9030;50.792;8.320;2023-02-01T05:05:22;6.93;;;2.38;;
17812;SDS011;9030;50.792;8.320;2023-02-01T05:07:48;5.72;;;2.33;;
17812;SDS011;9030;50.792;8.320;2023-02-01T05:10:15;6.57;;;2.33;;
17812;SDS011;9030;50.792;8.320;2023-02-01T05:12:42;6.07;;;2.28;;
17812;SDS011;9030;50.792;8.320;2023-02-01T05:15:27;6.80;;;2.55;;
17812;SDS011;9030;50.792;8.320;2023-02-01T05:17:55;9.38;;;2.50;;
17812;SDS011;9030;50.792;8.320;2023-02-01T05:20:22;7.75;;;2.90;;
17812;SDS011;9030;50.792;8.320;2023-02-01T05:22:48;10.80;;;2.53;;
17812;SDS011;9030;50.792;8.320;2023-02-01T05:25:15;7.25;;;2.63;;
17812;SDS011;9030;50.792;8.320;2023-02-01T05:27:42;6.93;;;2.17;;
17812;SDS011;9030;50.792;8.320;2023-02-01T05:30:09;7.80;;;2.90;;
17812;SDS011;9030;50.792;8.320;2023-02-01T05:32:36;7.28;;;2.53;;
17812;SDS011;9030;50.792;8.320;2023-02-01T05:35:05;8.38;;;2.58;;
17812;SDS011;9030;50.792;8.320;2023-02-01T05:37:32;4.90;;;2.10;;
17812;SDS011;9030;50.792;8.320;2023-02-01T05:39:59;6.60;;;2.53;;
17812;SDS011;9030;50.792;8.320;2023-02-01T05:42:26;6.40;;;2.55;;
17812;SDS011;9030;50.792;8.320;2023-02-01T05:44:52;6.88;;;1.95;;
17812;SDS011;9030;50.792;8.320;2023-02-01T05:47:19;4.35;;;1.95;;
17812;SDS011;9030;50.792;8.320;2023-02-01T05:49:46;6.32;;;2.45;;
17812;SDS011;9030;50.792;8.320;2023-02-01T05:52:14;5.88;;;2.00;;
17812;SDS011;9030;50.792;8.320;2023-02-01T05:54:44;5.30;;;1.70;;
17812;SDS011;9030;50.792;8.320;2023-02-01T05:57:11;8.40;;;2.10;;
17812;SDS011;9030;50.792;8.320;2023-02-01T05:59:38;8.65;;;2.42;;
17812;SDS011;9030;50.792;8.320;2023-02-01T06:02:06;7.97;;;2.38;;
17812;SDS011;9030;50.792;8.320;2023-02-01T06:04:32;6.57;;;2.30;;
17812;SDS011;9030;50.792;8.320;2023-02-01T06:06:59;10.10;;;3.17;;
17812;SDS011;9030;50.792;8.320;2023-02-01T06:09:27;5.18;;;2.28;;
17812;SDS011;9030;50.792;8.320;2023-02-01T06:11:54;6.47;;;2.25;;
17812;SDS011;9030;50.792;8.320;2023-02-01T06:14:21;5.22;;;1.80;;
17812;SDS011;9030;50.792;8.320;2023-02-01T06:16:48;8.02;;;2.05;;
17812;SDS011;9030;50.792;8.320;2023-02-01T06:19:15;12.00;;;7.63;;
17812;SDS011;9030;50.792;8.320;2023-02-01T06:21:42;15.43;;;11.60;;
17812;SDS011;9030;50.792;8.320;2023-02-01T06:24:09;19.08;;;14.68;;
17812;SDS011;9030;50.792;8.320;2023-02-01T06:26:37;19.10;;;14.80;;
17812;SDS011;9030;50.792;8.320;2023-02-01T06:29:05;16.13;;;9.68;;
17812;SDS011;9030;50.792;8.320;2023-02-01T06:31:32;14.38;;;6.63;;
17812;SDS011;9030;50.792;8.320;2023-02-01T06:33:59;16.30;;;6.45;;
17812;SDS011;9030;50.792;8.320;2023-02-01T06:36:26;12.68;;;5.90;;
17812;SDS011;9030;50.792;8.320;2023-02-01T06:38:52;13.90;;;5.47;;
17812;SDS011;9030;50.792;8.320;2023-02-01T06:41:21;13.50;;;4.88;;
17812;SDS011;9030;50.792;8.320;2023-02-01T06:43:49;12.50;;;5.57;;
17812;SDS011;9030;50.792;8.320;2023-02-01T06:46:16;12.63;;;5.53;;
17812;SDS011;9030;50.792;8.320;2023-02-01T06:48:42;11.38;;;4.63;;
17812;SDS011;9030;50.792;8.320;2023-02-01T06:51:17;12.27;;;4.97;;
17812;SDS011;9030;50.792;8.320;2023-02-01T06:53:46;11.13;;;4.95;;
17812;SDS011;9030;50.792;8.320;2023-02-01T06:56:13;13.45;;;5.15;;
17812;SDS011;9030;50.792;8.320;2023-02-01T06:58:39;9.77;;;4.60;;
17812;SDS011;9030;50.792;8.320;2023-02-01T07:01:08;11.35;;;4.50;;
17812;SDS011;9030;50.792;8.320;2023-02-01T07:03:37;10.35;;;3.58;;
17812;SDS011;9030;50.792;8.320;2023-02-01T07:06:04;8.30;;;3.85;;
17812;SDS011;9030;50.792;8.320;2023-02-01T07:08:32;10.43;;;4.07;;
17812;SDS011;9030;50.792;8.320;2023-02-01T07:11:01;9.93;;;3.95;;
17812;SDS011;9030;50.792;8.320;2023-02-01T07:13:28;7.57;;;3.20;;
17812;SDS011;9030;50.792;8.320;2023-02-01T07:15:57;7.93;;;3.83;;
17812;SDS011;9030;50.792;8.320;2023-02-01T07:18:25;10.52;;;3.22;;
17812;SDS011;9030;50.792;8.320;2023-02-01T07:20:52;10.10;;;3.40;;
17812;SDS011;9030;50.792;8.320;2023-02-01T07:23:19;9.70;;;3.85;;
17812;SDS011;9030;50.792;8.320;2023-02-01T07:25:46;11.35;;;3.40;;
17812;SDS011;9030;50.792;8.320;2023-02-01T07:28:13;10.38;;;3.88;;
17812;SDS011;9030;50.792;8.320;2023-02-01T07:30:40;12.55;;;3.58;;
17812;SDS011;9030;50.792;8.320;2023-02-01T07:33:07;7.07;;;2.92;;
17812;SDS011;9030;50.792;8.320;2023-02-01T07:35:35;8.30;;;3.38;;
17812;SDS011;9030;50.792;8.320;2023-02-01T07:38:02;9.50;;;3.42;;
17812;SDS011;9030;50.792;8.320;2023-02-01T07:40:28;8.10;;;3.25;;
17812;SDS011;9030;50.792;8.320;2023-02-01T07:42:55;7.40;;;2.72;;
17812;SDS011;9030;50.792;8.320;2023-02-01T07:45:22;8.75;;;3.20;;
17812;SDS011;9030;50.792;8.320;2023-02-01T07:47:50;6.07;;;2.63;;
17812;SDS011;9030;50.792;8.320;2023-02-01T07:50:18;6.45;;;2.78;;
17812;SDS011;9030;50.792;8.320;2023-02-01T07:52:46;8.30;;;3.00;;
17812;SDS011;9030;50.792;8.320;2023-02-01T07:55:13;7.85;;;2.70;;
17812;SDS011;9030;50.792;8.320;2023-02-01T07:57:39;8.13;;;2.72;;
17812;SDS011;9030;50.792;8.320;2023-02-01T08:00:07;6.28;;;2.90;;
17812;SDS011;9030;50.792;8.320;2023-02-01T08:02:52;10.10;;;3.33;;
17812;SDS011;9030;50.792;8.320;2023-02-01T08:05:18;7.35;;;2.63;;
17812;SDS011;9030;50.792;8.320;2023-02-01T08:07:49;7.65;;;3.03;;
17812;SDS011;9030;50.792;8.320;2023-02-01T08:10:16;10.10;;;3.33;;
17812;SDS011;9030;50.792;8.320;2023-02-01T08:12:43;7.47;;;3.10;;
17812;SDS011;9030;50.792;8.320;2023-02-01T08:15:12;8.75;;;3.15;;
17812;SDS011;9030;50.792;8.320;2023-02-01T08:17:40;7.60;;;2.65;;
17812;SDS011;9030;50.792;8.320;2023-02-01T08:20:11;10.82;;;2.95;;
17812;SDS011;9030;50.792;8.320;2023-02-01T08:22:39;10.38;;;3.78;;
17812;SDS011;9030;50.792;8.320;2023-02-01T08:25:07;9.95;;;2.47;;
17812;SDS011;9030;50.792;8.320;2023-02-01T08:27:35;7.35;;;2.47;;
17812;SDS011;9030;50.792;8.320;2023-02-01T08:30:02;6.25;;;2.58;;
17812;SDS011;9030;50.792;8.320;2023-02-01T08:32:29;8.50;;;2.65;;
17812;SDS011;9030;50.792;8.320;2023-02-01T08:34:56;8.02;;;2.40;;
17812;SDS011;9030;50.792;8.320;2023-02-01T08:37:23;7.50;;;2.45;;
17812;SDS011;9030;50.792;8.320;2023-02-01T08:39:49;5.03;;;1.80;;
17812;SDS011;9030;50.792;8.320;2023-02-01T08:42:17;5.75;;;2.65;;
17812;SDS011;9030;50.792;8.320;2023-02-01T08:45:02;7.60;;;2.40;;
17812;SDS011;9030;50.792;8.320;2023-02-01T08:47:29;6.18;;;2.28;;
17812;SDS011;9030;50.792;8.320;2023-02-01T08:49:56;9.25;;;2.60;;
17812;SDS011;9030;50.792;8.320;2023-02-01T08:52:23;7.50;;;2.65;;
17812;SDS011;9030;50.792;8.320;2023-02-01T08:54:49;8.07;;;3.47;;
17812;SDS011;9030;50.792;8.320;2023-02-01T08:57:17;5.25;;;1.90;;
17812;SDS011;9030;50.792;8.320;2023-02-01T08:59:44;7.20;;;2.88;;
17812;SDS011;9030;50.792;8.320;2023-02-01T09:02:11;5.97;;;2.25;;
17812;SDS011;9030;50.792;8.320;2023-02-01T09:04:39;8.40;;;2.85;;
17812;SDS011;9030;50.792;8.320;2023-02-01T09:07:06;8.07;;;2.90;;
17812;SDS011;9030;50.792;8.320;2023-02-01T09:09:32;8.98;;;3.00;;
17812;SDS011;9030;50.792;8.320;2023-02-01T09:11:59;6.03;;;2.30;;
17812;SDS011;9030;50.792;8.320;2023-02-01T09:14:27;7.72;;;2.92;;
17812;SDS011;9030;50.792;8.320;2023-02-01T09:16:54;10.13;;;2.78;;
17812;SDS011;9030;50.792;8.320;2023-02-01T09:19:20;7.65;;;2.50;;
17812;SDS011;9030;50.792;8.320;2023-02-01T09:21:47;8.02;;;2.53;;
17812;SDS011;9030;50.792;8.320;2023-02-01T09:24:14;9.10;;;2.47;;
17812;SDS011;9030;50.792;8.320;2023-02-01T09:26:40;5.50;;;1.83;;
17812;SDS011;9030;50.792;8.320;2023-02-01T09:29:07;5.28;;;2.10;;
17812;SDS011;9030;50.792;8.320;2023-02-01T09:31:37;5.97;;;2.30;;
17812;SDS011;9030;50.792;8.320;2023-02-01T09:34:05;6.07;;;2.33;;
17812;SDS011;9030;50.792;8.320;2023-02-01T09:36:32;6.32;;;2.72;;
17812;SDS011;9030;50.792;8.320;2023-02-01T09:39:00;7.35;;;2.50;;
17812;SDS011;9030;50.792;8.320;2023-02-01T09:41:31;8.77;;;2.40;;
17812;SDS011;9030;50.792;8.320;2023-02-01T09:44:06;6.53;;;2.03;;
17812;SDS011;9030;50.792;8.320;2023-02-01T09:46:42;7.13;;;2.42;;
17812;SDS011;9030;50.792;8.320;2023-02-01T09:49:11;7.60;;;2.33;;
17812;SDS011;9030;50.792;8.320;2023-02-01T09:51:41;6.85;;;2.45;;
17812;SDS011;9030;50.792;8.320;2023-02-01T09:54:12;10.07;;;2.72;;
17812;SDS011;9030;50.792;8.320;2023-02-01T09:56:42;8.10;;;2.70;;
17812;SDS011;9030;50.792;8.320;2023-02-01T09:59:18;6.22;;;2.25;;
17812;SDS011;9030;50.792;8.320;2023-02-01T10:01:53;6.32;;;1.90;;
17812;SDS011;9030;50.792;8.320;2023-02-01T10:04:20;7.75;;;2.88;;
17812;SDS011;9030;50.792;8.320;2023-02-01T10:06:50;7.95;;;2.65;;
17812;SDS011;9030;50.792;8.320;2023-02-01T10:09:30;8.93;;;2.70;;
17812;SDS011;9030;50.792;8.320;2023-02-01T10:15:15;6.85;;;2.00;;
17812;SDS011;9030;50.792;8.320;2023-02-01T10:18:00;5.28;;;1.73;;
17812;SDS011;9030;50.792;8.320;2023-02-01T10:20:44;8.77;;;2.33;;
17812;SDS011;9030;50.792;8.320;2023-02-01T10:23:23;9.23;;;2.47;;
17812;SDS011;9030;50.792;8.320;2023-02-01T10:26:18;9.07;;;2.78;;
17812;SDS011;9030;50.792;8.320;2023-02-01T10:28:46;6.07;;;2.22;;
17812;SDS011;9030;50.792;8.320;2023-02-01T10:31:15;8.25;;;2.25;;
17812;SDS011;9030;50.792;8.320;2023-02-01T10:33:44;7.85;;;2.40;;
17812;SDS011;9030;50.792;8.320;2023-02-01T10:36:14;6.38;;;2.25;;
17812;SDS011;9030;50.792;8.320;2023-02-01T10:38:43;6.78;;;2.15;;
17812;SDS011;9030;50.792;8.320;2023-02-01T10:41:12;10.88;;;3.13;;
17812;SDS011;9030;50.792;8.320;2023-02-01T10:43:40;6.32;;;1.98;;
17812;SDS011;9030;50.792;8.320;2023-02-01T10:46:08;6.45;;;2.20;;
17812;SDS011;9030;50.792;8.320;2023-02-01T10:48:35;8.57;;;2.42;;
17812;SDS011;9030;50.792;8.320;2023-02-01T10:51:05;4.45;;;2.35;;
17812;SDS011;9030;50.792;8.320;2023-02-01T10:53:38;5.93;;;2.58;;
17812;SDS011;9030;50.792;8.320;2023-02-01T10:56:11;4.38;;;1.65;;
17812;SDS011;9030;50.792;8.320;2023-02-01T10:58:43;7.32;;;2.10;;
17812;SDS011;9030;50.792;8.320;2023-02-01T11:01:15;5.95;;;1.83;;
17812;SDS011;9030;50.792;8.320;2023-02-01T11:03:46;8.02;;;2.83;;
17812;SDS011;9030;50.792;8.320;2023-02-01T11:06:24;8.38;;;2.40;;
17812;SDS011;9030;50.792;8.320;2023-02-01T11:08:53;6.97;;;2.10;;
17812;SDS011;9030;50.792;8.320;2023-02-01T11:11:21;5.38;;;2.00;;
17812;SDS011;9030;50.792;8.320;2023-02-01T11:13:52;5.88;;;1.80;;
17812;SDS011;9030;50.792;8.320;2023-02-01T11:16:21;7.28;;;2.72;;
17812;SDS011;9030;50.792;8.320;2023-02-01T11:18:55;7.90;;;2.10;;
17812;SDS011;9030;50.792;8.320;2023-02-01T11:21:26;7.32;;;1.90;;
17812;SDS011;9030;50.792;8.320;2023-02-01T11:23:53;8.80;;;2.63;;
17812;SDS011;9030;50.792;8.320;2023-02-01T11:26:21;8.45;;;2.40;;
17812;SDS011;9030;50.792;8.320;2023-02-01T11:28:53;7.18;;;2.40;;
17812;SDS011;9030;50.792;8.320;2023-02-01T11:31:24;7.38;;;1.73;;
17812;SDS011;9030;50.792;8.320;2023-02-01T11:33:52;8.45;;;2.22;;
17812;SDS011;9030;50.792;8.320;2023-02-01T11:36:23;10.15;;;3.38;;
17812;SDS011;9030;50.792;8.320;2023-02-01T11:38:54;12.60;;;3.05;;
17812;SDS011;9030;50.792;8.320;2023-02-01T11:41:34;9.65;;;2.17;;
17812;SDS011;9030;50.792;8.320;2023-02-01T11:44:15;6.88;;;1.75;;
17812;SDS011;9030;50.792;8.320;2023-02-01T11:46:46;7.25;;;2.53;;
17812;SDS011;9030;50.792;8.320;2023-02-01T11:49:15;12.88;;;2.90;;
17812;SDS011;9030;50.792;8.320;2023-02-01T11:51:49;9.13;;;2.15;;
17812;SDS011;9030;50.792;8.320;2023-02-01T11:54:43;6.95;;;2.20;;
17812;SDS011;9030;50.792;8.320;2023-02-01T11:57:25;8.38;;;2.80;;
17812;SDS011;9030;50.792;8.320;2023-02-01T12:00:10;10.05;;;3.45;;
17812;SDS011;9030;50.792;8.320;2023-02-01T12:06:08;6.53;;;1.90;;
17812;SDS011;9030;50.792;8.320;2023-02-01T12:11:41;11.73;;;2.55;;
17812;SDS011;9030;50.792;8.320;2023-02-01T12:14:21;8.23;;;2.00;;
17812;SDS011;9030;50.792;8.320;2023-02-01T12:17:11;16.02;;;3.65;;
17812;SDS011;9030;50.792;8.320;2023-02-01T12:20:07;20.17;;;7.82;;
17812;SDS011;9030;50.792;8.320;2023-02-01T12:22:49;16.92;;;5.25;;
17812;SDS011;9030;50.792;8.320;2023-02-01T12:25:29;76.15;;;20.25;;
17812;SDS011;9030;50.792;8.320;2023-02-01T12:31:17;69.88;;;42.55;;
17812;SDS011;9030;50.792;8.320;2023-02-01T12:33:58;27.48;;;14.98;;
17812;SDS011;9030;50.792;8.320;2023-02-01T12:36:39;35.45;;;17.27;;
17812;SDS011;9030;50.792;8.320;2023-02-01T12:39:19;96.53;;;28.50;;
17812;SDS011;9030;50.792;8.320;2023-02-01T12:41:53;306.50;;;221.25;;
17812;SDS011;9030;50.792;8.320;2023-02-01T12:44:30;230.55;;;157.65;;
17812;SDS011;9030;50.792;8.320;2023-02-01T12:47:09;114.47;;;80.90;;
17812;SDS011;9030;50.792;8.320;2023-02-01T12:49:48;59.20;;;43.53;;
17812;SDS011;9030;50.792;8.320;2023-02-01T12:52:20;52.35;;;31.83;;
17812;SDS011;9030;50.792;8.320;2023-02-01T12:54:55;40.92;;;22.05;;
17812;SDS011;9030;50.792;8.320;2023-02-01T12:57:28;33.45;;;18.33;;
17812;SDS011;9030;50.792;8.320;2023-02-01T13:00:00;33.30;;;19.10;;
17812;SDS011;9030;50.792;8.320;2023-02-01T13:02:35;33.42;;;18.27;;
17812;SDS011;9030;50.792;8.320;2023-02-01T13:05:11;27.77;;;16.20;;
17812;SDS011;9030;50.792;8.320;2023-02-01T13:07:42;28.13;;;16.80;;
17812;SDS011;9030;50.792;8.320;2023-02-01T13:10:12;30.77;;;17.40;;
17812;SDS011;9030;50.792;8.320;2023-02-01T13:12:47;26.95;;;14.68;;
17812;SDS011;9030;50.792;8.320;2023-02-01T13:15:19;26.73;;;14.50;;
17812;SDS011;9030;50.792;8.320;2023-02-01T13:17:50;28.52;;;17.42;;
17812;SDS011;9030;50.792;8.320;2023-02-01T13:20:21;27.33;;;15.52;;
17812;SDS011;9030;50.792;8.320;2023-02-01T13:22:53;32.35;;;16.77;;
17812;SDS011;9030;50.792;8.320;2023-02-01T13:25:27;24.30;;;13.18;;
17812;SDS011;9030;50.792;8.320;2023-02-01T13:28:00;77.18;;;63.45;;
17812;SDS011;9030;50.792;8.320;2023-02-01T13:30:34;79.63;;;53.28;;
17812;SDS011;9030;50.792;8.320;2023-02-01T13:33:15;61.47;;;47.55;;
17812;SDS011;9030;50.792;8.320;2023-02-01T13:35:56;71.47;;;53.20;;
17812;SDS011;9030;50.792;8.320;2023-02-01T13:39:09;47.13;;;37.20;;
17812;SDS011;9030;50.792;8.320;2023-02-01T13:41:55;45.50;;;32.25;;
17812;SDS011;9030;50.792;8.320;2023-02-01T13:44:27;47.45;;;30.85;;
17812;SDS011;9030;50.792;8.320;2023-02-01T13:46:59;35.47;;;23.90;;
17812;SDS011;9030;50.792;8.320;2023-02-01T13:49:30;44.45;;;29.80;;
17812;SDS011;9030;50.792;8.320;2023-02-01T13:52:03;38.70;;;24.38;;
17812;SDS011;9030;50.792;8.320;2023-02-01T13:54:31;33.28;;;22.85;;
17812;SDS011;9030;50.792;8.320;2023-02-01T13:56:59;34.45;;;23.05;;
17812;SDS011;9030;50.792;8.320;2023-02-01T14:03:01;31.77;;;21.65;;
17812;SDS011;9030;50.792;8.320;2023-02-01T14:06:03;32.08;;;19.15;;
17812;SDS011;9030;50.792;8.320;2023-02-01T14:08:42;33.53;;;20.17;;
17812;SDS011;9030;50.792;8.320;2023-02-01T14:11:31;31.23;;;20.42;;
17812;SDS011;9030;50.792;8.320;2023-02-01T14:14:06;29.05;;;18.35;;
17812;SDS011;9030;50.792;8.320;2023-02-01T14:23:24;27.25;;;15.15;;
17812;SDS011;9030;50.792;8.320;2023-02-01T14:28:49;27.23;;;15.95;;
17812;SDS011;9030;50.792;8.320;2023-02-01T14:31:27;25.40;;;15.15;;
17812;SDS011;9030;50.792;8.320;2023-02-01T14:34:00;22.65;;;14.15;;
17812;SDS011;9030;50.792;8.320;2023-02-01T14:36:41;36.97;;;27.88;;
17812;SDS011;9030;50.792;8.320;2023-02-01T14:39:30;35.00;;;24.65;;
17812;SDS011;9030;50.792;8.320;2023-02-01T14:42:04;30.92;;;20.38;;
17812;SDS011;9030;50.792;8.320;2023-02-01T14:44:40;26.52;;;17.90;;
17812;SDS011;9030;50.792;8.320;2023-02-01T14:47:09;27.45;;;17.10;;
17812;SDS011;9030;50.792;8.320;2023-02-01T14:49:54;23.88;;;15.00;;
17812;SDS011;9030;50.792;8.320;2023-02-01T14:52:23;25.80;;;16.20;;
17812;SDS011;9030;50.792;8.320;2023-02-01T14:54:57;25.50;;;15.15;;
17812;SDS011;9030;50.792;8.320;2023-02-01T14:57:30;52.50;;;45.70;;
17812;SDS011;9030;50.792;8.320;2023-02-01T15:00:05;39.22;;;34.35;;
17812;SDS011;9030;50.792;8.320;2023-02-01T15:02:34;42.22;;;37.13;;
17812;SDS011;9030;50.792;8.320;2023-02-01T15:05:16;39.15;;;32.78;;
17812;SDS011;9030;50.792;8.320;2023-02-01T15:07:54;38.00;;;28.27;;
17812;SDS011;9030;50.792;8.320;2023-02-01T15:10:21;29.73;;;24.85;;
17812;SDS011;9030;50.792;8.320;2023-02-01T15:12:49;28.80;;;20.15;;
17812;SDS011;9030;50.792;8.320;2023-02-01T15:15:17;27.77;;;19.17;;
17812;SDS011;9030;50.792;8.320;2023-02-01T15:17:52;33.25;;;19.67;;
17812;SDS011;9030;50.792;8.320;2023-02-01T15:20:22;33.03;;;22.38;;
17812;SDS011;9030;50.792;8.320;2023-02-01T15:22:54;24.95;;;18.13;;
17812;SDS011;9030;50.792;8.320;2023-02-01T15:25:23;25.70;;;17.85;;
17812;SDS011;9030;50.792;8.320;2023-02-01T15:27:52;29.70;;;18.60;;
17812;SDS011;9030;50.792;8.320;2023-02-01T15:30:20;25.88;;;18.48;;
17812;SDS011;9030;50.792;8.320;2023-02-01T15:32:49;22.23;;;15.73;;
17812;SDS011;9030;50.792;8.320;2023-02-01T15:38:25;22.23;;;15.15;;
17812;SDS011;9030;50.792;8.320;2023-02-01T15:41:01;24.45;;;17.90;;
17812;SDS011;9030;50.792;8.320;2023-02-01T15:43:31;24.42;;;16.13;;
17812;SDS011;9030;50.792;8.320;2023-02-01T15:46:01;19.40;;;12.10;;
17812;SDS011;9030;50.792;8.320;2023-02-01T15:48:35;19.58;;;11.65;;